sensor_id;sensor_type;location;lat;lon;timestamp;P1;durP1;ratioP1;P2;durP2;ratioP2
66485;SDS011;53303;47.476;8.084;2023-03-01T00:01:19;7.47;;;3.78;;
66485;SDS011;53303;47.476;8.084;2023-03-01T00:03:47;7.53;;;3.67;;
66485;SDS011;53303;47.476;8.084;2023-03-01T00:06:15;7.90;;;3.90;;
66485;SDS011;53303;47.476;8.084;2023-03-01T00:08:41;6.72;;;3.85;;
66485;SDS011;53303;47.476;8.084;2023-03-01T00:13:34;7.80;;;3.53;;
66485;SDS011;53303;47.476;8.084;2023-03-01T00:16:06;7.55;;;3.85;;
66485;SDS011;53303;47.476;8.084;2023-03-01T00:18:34;7.32;;;3.65;;
66485;SDS011;53303;47.476;8.084;2023-03-01T00:21:02;7.15;;;3.72;;
66485;SDS011;53303;47.476;8.084;2023-03-01T00:23:28;7.65;;;3.78;;
66485;SDS011;53303;47.476;8.084;2023-03-01T00:25:56;7.15;;;3.65;;
66485;SDS011;53303;47.476;8.084;2023-03-01T00:28:21;9.40;;;4.30;;
66485;SDS011;53303;47.476;8.084;2023-03-01T00:30:47;8.00;;;3.50;;
66485;SDS011;53303;47.476;8.084;2023-03-01T00:33:12;7.50;;;3.70;;
66485;SDS011;53303;47.476;8.084;2023-03-01T00:35:38;7.10;;;3.92;;
66485;SDS011;53303;47.476;8.084;2023-03-01T00:38:03;6.97;;;3.90;;
66485;SDS011;53303;47.476;8.084;2023-03-01T00:40:30;7.43;;;3.83;;
66485;SDS011;53303;47.476;8.084;2023-03-01T00:42:57;8.57;;;3.63;;
66485;SDS011;53303;47.476;8.084;2023-03-01T00:45:25;7.57;;;4.22;;
66485;SDS011;53303;47.476;8.084;2023-03-01T00:47:51;7.93;;;3.90;;
66485;SDS011;53303;47.476;8.084;2023-03-01T00:50:17;6.97;;;3.50;;
66485;SDS011;53303;47.476;8.084;2023-03-01T00:52:44;7.35;;;3.83;;
66485;SDS011;53303;47.476;8.084;2023-03-01T00:55:12;7.13;;;3.97;;
66485;SDS011;53303;47.476;8.084;2023-03-01T00:57:38;7.18;;;3.83;;
66485;SDS011;53303;47.476;8.084;2023-03-01T01:00:06;6.78;;;3.80;;
66485;SDS011;53303;47.476;8.084;2023-03-01T01:02:35;10.15;;;3.78;;
66485;SDS011;53303;47.476;8.084;2023-03-01T01:05:00;7.15;;;3.90;;
66485;SDS011;53303;47.476;8.084;2023-03-01T01:07:26;6.95;;;3.90;;
66485;SDS011;53303;47.476;8.084;2023-03-01T01:09:54;6.95;;;3.80;;
66485;SDS011;53303;47.476;8.084;2023-03-01T01:12:19;7.45;;;4.13;;
66485;SDS011;53303;47.476;8.084;2023-03-01T01:14:48;7.28;;;3.63;;
66485;SDS011;53303;47.476;8.084;2023-03-01T01:17:13;8.05;;;3.92;;
66485;SDS011;53303;47.476;8.084;2023-03-01T01:19:41;8.45;;;3.90;;
66485;SDS011;53303;47.476;8.084;2023-03-01T01:22:06;8.10;;;4.10;;
66485;SDS011;53303;47.476;8.084;2023-03-01T01:24:34;8.30;;;4.00;;
66485;SDS011;53303;47.476;8.084;2023-03-01T01:27:02;9.10;;;3.72;;
66485;SDS011;53303;47.476;8.084;2023-03-01T01:29:28;6.72;;;4.03;;
66485;SDS011;53303;47.476;8.084;2023-03-01T01:31:53;7.68;;;3.95;;
66485;SDS011;53303;47.476;8.084;2023-03-01T01:34:21;6.50;;;4.07;;
66485;SDS011;53303;47.476;8.084;2023-03-01T01:36:50;6.82;;;3.67;;
66485;SDS011;53303;47.476;8.084;2023-03-01T01:39:21;6.70;;;3.60;;
66485;SDS011;53303;47.476;8.084;2023-03-01T01:41:49;7.70;;;3.88;;
66485;SDS011;53303;47.476;8.084;2023-03-01T01:44:25;7.15;;;3.75;;
66485;SDS011;53303;47.476;8.084;2023-03-01T01:49:54;7.32;;;3.63;;
66485;SDS011;53303;47.476;8.084;2023-03-01T01:57:29;9.73;;;3.95;;
66485;SDS011;53303;47.476;8.084;2023-03-01T02:00:04;6.60;;;3.70;;
66485;SDS011;53303;47.476;8.084;2023-03-01T02:02:33;6.78;;;3.78;;
66485;SDS011;53303;47.476;8.084;2023-03-01T02:05:02;7.07;;;3.80;;
66485;SDS011;53303;47.476;8.084;2023-03-01T02:07:35;6.95;;;3.90;;
66485;SDS011;53303;47.476;8.084;2023-03-01T02:10:03;7.05;;;3.78;;
66485;SDS011;53303;47.476;8.084;2023-03-01T02:12:28;7.68;;;3.50;;
66485;SDS011;53303;47.476;8.084;2023-03-01T02:14:54;7.50;;;3.70;;
66485;SDS011;53303;47.476;8.084;2023-03-01T02:17:20;7.75;;;4.03;;
66485;SDS011;53303;47.476;8.084;2023-03-01T02:22:22;6.97;;;3.92;;
66485;SDS011;53303;47.476;8.084;2023-03-01T02:24:56;8.40;;;4.22;;
66485;SDS011;53303;47.476;8.084;2023-03-01T02:27:37;8.38;;;4.28;;
66485;SDS011;53303;47.476;8.084;2023-03-01T02:30:08;6.35;;;3.60;;
66485;SDS011;53303;47.476;8.084;2023-03-01T02:32:37;7.22;;;4.18;;
66485;SDS011;53303;47.476;8.084;2023-03-01T02:35:06;7.63;;;3.92;;
66485;SDS011;53303;47.476;8.084;2023-03-01T02:37:35;8.13;;;4.00;;
66485;SDS011;53303;47.476;8.084;2023-03-01T02:40:04;8.15;;;4.35;;
66485;SDS011;53303;47.476;8.084;2023-03-01T02:42:37;6.47;;;3.53;;
66485;SDS011;53303;47.476;8.084;2023-03-01T02:45:11;7.43;;;3.92;;
66485;SDS011;53303;47.476;8.084;2023-03-01T02:47:36;7.25;;;4.32;;
66485;SDS011;53303;47.476;8.084;2023-03-01T02:50:02;7.50;;;3.83;;
66485;SDS011;53303;47.476;8.084;2023-03-01T02:55:39;7.43;;;3.92;;
66485;SDS011;53303;47.476;8.084;2023-03-01T02:58:05;7.07;;;3.65;;
66485;SDS011;53303;47.476;8.084;2023-03-01T03:00:40;6.57;;;3.70;;
66485;SDS011;53303;47.476;8.084;2023-03-01T03:03:15;6.95;;;3.80;;
66485;SDS011;53303;47.476;8.084;2023-03-01T03:05:45;5.95;;;3.85;;
66485;SDS011;53303;47.476;8.084;2023-03-01T03:08:13;7.00;;;3.83;;
66485;SDS011;53303;47.476;8.084;2023-03-01T03:10:48;6.32;;;3.70;;
66485;SDS011;53303;47.476;8.084;2023-03-01T03:13:14;6.70;;;3.95;;
66485;SDS011;53303;47.476;8.084;2023-03-01T03:15:40;7.50;;;4.15;;
66485;SDS011;53303;47.476;8.084;2023-03-01T03:18:11;7.40;;;3.70;;
66485;SDS011;53303;47.476;8.084;2023-03-01T03:20:39;7.75;;;4.18;;
66485;SDS011;53303;47.476;8.084;2023-03-01T03:23:08;6.13;;;3.72;;
66485;SDS011;53303;47.476;8.084;2023-03-01T03:25:36;7.70;;;4.20;;
66485;SDS011;53303;47.476;8.084;2023-03-01T03:28:03;7.13;;;3.80;;
66485;SDS011;53303;47.476;8.084;2023-03-01T03:30:34;6.45;;;3.75;;
66485;SDS011;53303;47.476;8.084;2023-03-01T03:33:01;7.00;;;3.92;;
66485;SDS011;53303;47.476;8.084;2023-03-01T03:35:30;7.65;;;4.00;;
66485;SDS011;53303;47.476;8.084;2023-03-01T03:38:01;6.82;;;4.13;;
66485;SDS011;53303;47.476;8.084;2023-03-01T03:40:40;8.43;;;4.10;;
66485;SDS011;53303;47.476;8.084;2023-03-01T03:43:15;6.53;;;3.50;;
66485;SDS011;53303;47.476;8.084;2023-03-01T03:45:43;7.82;;;3.78;;
66485;SDS011;53303;47.476;8.084;2023-03-01T03:48:10;7.53;;;4.25;;
66485;SDS011;53303;47.476;8.084;2023-03-01T03:50:36;6.93;;;3.85;;
66485;SDS011;53303;47.476;8.084;2023-03-01T03:53:04;6.93;;;3.60;;
66485;SDS011;53303;47.476;8.084;2023-03-01T03:55:32;7.70;;;4.13;;
66485;SDS011;53303;47.476;8.084;2023-03-01T03:57:59;7.35;;;3.72;;
66485;SDS011;53303;47.476;8.084;2023-03-01T04:00:31;6.85;;;3.78;;
66485;SDS011;53303;47.476;8.084;2023-03-01T04:03:04;7.63;;;4.05;;
66485;SDS011;53303;47.476;8.084;2023-03-01T04:05:30;7.00;;;4.10;;
66485;SDS011;53303;47.476;8.084;2023-03-01T04:07:56;7.60;;;4.25;;
66485;SDS011;53303;47.476;8.084;2023-03-01T04:10:28;6.63;;;3.85;;
66485;SDS011;53303;47.476;8.084;2023-03-01T04:12:56;7.50;;;4.15;;
66485;SDS011;53303;47.476;8.084;2023-03-01T04:15:22;8.40;;;4.13;;
66485;SDS011;53303;47.476;8.084;2023-03-01T04:17:49;7.53;;;3.72;;
66485;SDS011;53303;47.476;8.084;2023-03-01T04:20:17;7.40;;;4.00;;
66485;SDS011;53303;47.476;8.084;2023-03-01T04:22:50;8.13;;;4.10;;
66485;SDS011;53303;47.476;8.084;2023-03-01T04:25:33;8.48;;;4.05;;
66485;SDS011;53303;47.476;8.084;2023-03-01T04:28:01;7.40;;;4.38;;
66485;SDS011;53303;47.476;8.084;2023-03-01T04:30:26;7.82;;;4.15;;
66485;SDS011;53303;47.476;8.084;2023-03-01T04:32:51;7.20;;;4.30;;
66485;SDS011;53303;47.476;8.084;2023-03-01T04:35:17;7.40;;;4.25;;
66485;SDS011;53303;47.476;8.084;2023-03-01T04:37:42;7.22;;;3.88;;
66485;SDS011;53303;47.476;8.084;2023-03-01T04:40:08;6.80;;;3.95;;
66485;SDS011;53303;47.476;8.084;2023-03-01T04:42:43;6.72;;;3.85;;
66485;SDS011;53303;47.476;8.084;2023-03-01T04:45:09;6.72;;;4.38;;
66485;SDS011;53303;47.476;8.084;2023-03-01T04:47:40;7.78;;;4.18;;
66485;SDS011;53303;47.476;8.084;2023-03-01T04:50:08;7.00;;;4.10;;
66485;SDS011;53303;47.476;8.084;2023-03-01T04:52:34;7.65;;;3.97;;
66485;SDS011;53303;47.476;8.084;2023-03-01T04:55:00;7.03;;;4.20;;
66485;SDS011;53303;47.476;8.084;2023-03-01T04:57:26;6.63;;;4.22;;
66485;SDS011;53303;47.476;8.084;2023-03-01T04:59:51;6.90;;;4.20;;
66485;SDS011;53303;47.476;8.084;2023-03-01T05:02:17;7.35;;;4.50;;
66485;SDS011;53303;47.476;8.084;2023-03-01T05:04:42;6.95;;;4.30;;
66485;SDS011;53303;47.476;8.084;2023-03-01T05:07:11;7.32;;;4.35;;
66485;SDS011;53303;47.476;8.084;2023-03-01T05:09:38;9.15;;;5.25;;
66485;SDS011;53303;47.476;8.084;2023-03-01T05:12:03;12.85;;;5.25;;
66485;SDS011;53303;47.476;8.084;2023-03-01T05:14:29;14.25;;;5.78;;
66485;SDS011;53303;47.476;8.084;2023-03-01T05:16:54;11.13;;;5.13;;
66485;SDS011;53303;47.476;8.084;2023-03-01T05:19:29;11.93;;;5.30;;
66485;SDS011;53303;47.476;8.084;2023-03-01T05:21:57;11.15;;;5.20;;
66485;SDS011;53303;47.476;8.084;2023-03-01T05:24:30;11.18;;;5.38;;
66485;SDS011;53303;47.476;8.084;2023-03-01T05:26:56;13.95;;;5.28;;
66485;SDS011;53303;47.476;8.084;2023-03-01T05:29:23;9.75;;;5.28;;
66485;SDS011;53303;47.476;8.084;2023-03-01T05:31:53;13.32;;;4.90;;
66485;SDS011;53303;47.476;8.084;2023-03-01T05:34:27;11.70;;;4.90;;
66485;SDS011;53303;47.476;8.084;2023-03-01T05:36:56;11.57;;;4.57;;
66485;SDS011;53303;47.476;8.084;2023-03-01T05:39:22;13.70;;;4.90;;
66485;SDS011;53303;47.476;8.084;2023-03-01T05:41:53;9.30;;;4.40;;
66485;SDS011;53303;47.476;8.084;2023-03-01T05:44:20;10.18;;;4.50;;
66485;SDS011;53303;47.476;8.084;2023-03-01T05:46:45;9.90;;;4.78;;
66485;SDS011;53303;47.476;8.084;2023-03-01T05:49:11;9.55;;;5.15;;
66485;SDS011;53303;47.476;8.084;2023-03-01T05:51:38;12.35;;;5.25;;
66485;SDS011;53303;47.476;8.084;2023-03-01T05:54:04;11.55;;;5.00;;
66485;SDS011;53303;47.476;8.084;2023-03-01T05:56:32;11.27;;;4.90;;
66485;SDS011;53303;47.476;8.084;2023-03-01T05:59:01;12.85;;;4.63;;
66485;SDS011;53303;47.476;8.084;2023-03-01T06:01:27;7.72;;;4.78;;
66485;SDS011;53303;47.476;8.084;2023-03-01T06:03:55;8.77;;;4.30;;
66485;SDS011;53303;47.476;8.084;2023-03-01T06:06:21;8.73;;;4.53;;
66485;SDS011;53303;47.476;8.084;2023-03-01T06:08:47;12.63;;;4.88;;
66485;SDS011;53303;47.476;8.084;2023-03-01T06:11:16;8.60;;;4.47;;
66485;SDS011;53303;47.476;8.084;2023-03-01T06:13:44;9.60;;;4.68;;
66485;SDS011;53303;47.476;8.084;2023-03-01T06:16:13;9.02;;;4.60;;
66485;SDS011;53303;47.476;8.084;2023-03-01T06:18:39;10.00;;;4.97;;
66485;SDS011;53303;47.476;8.084;2023-03-01T06:21:05;8.07;;;4.28;;
66485;SDS011;53303;47.476;8.084;2023-03-01T06:23:31;11.25;;;4.85;;
66485;SDS011;53303;47.476;8.084;2023-03-01T06:25:57;7.20;;;4.20;;
66485;SDS011;53303;47.476;8.084;2023-03-01T06:28:23;9.18;;;4.72;;
66485;SDS011;53303;47.476;8.084;2023-03-01T06:30:49;7.70;;;4.15;;
66485;SDS011;53303;47.476;8.084;2023-03-01T06:33:16;9.10;;;4.22;;
66485;SDS011;53303;47.476;8.084;2023-03-01T06:35:44;8.70;;;4.28;;
66485;SDS011;53303;47.476;8.084;2023-03-01T06:38:09;10.13;;;4.13;;
66485;SDS011;53303;47.476;8.084;2023-03-01T06:40:39;10.45;;;5.13;;
66485;SDS011;53303;47.476;8.084;2023-03-01T06:43:05;8.70;;;4.60;;
66485;SDS011;53303;47.476;8.084;2023-03-01T06:45:33;8.98;;;4.50;;
66485;SDS011;53303;47.476;8.084;2023-03-01T06:48:01;9.07;;;4.60;;
66485;SDS011;53303;47.476;8.084;2023-03-01T06:50:29;10.98;;;4.85;;
66485;SDS011;53303;47.476;8.084;2023-03-01T06:52:55;13.02;;;4.53;;
66485;SDS011;53303;47.476;8.084;2023-03-01T06:55:21;14.93;;;5.03;;
66485;SDS011;53303;47.476;8.084;2023-03-01T06:57:53;12.38;;;4.55;;
66485;SDS011;53303;47.476;8.084;2023-03-01T07:00:20;8.13;;;4.50;;
66485;SDS011;53303;47.476;8.084;2023-03-01T07:02:46;9.25;;;4.45;;
66485;SDS011;53303;47.476;8.084;2023-03-01T07:05:11;10.90;;;4.93;;
66485;SDS011;53303;47.476;8.084;2023-03-01T07:07:36;9.20;;;4.38;;
66485;SDS011;53303;47.476;8.084;2023-03-01T07:10:02;8.23;;;4.38;;
66485;SDS011;53303;47.476;8.084;2023-03-01T07:12:28;11.45;;;4.85;;
66485;SDS011;53303;47.476;8.084;2023-03-01T07:14:53;8.27;;;4.38;;
66485;SDS011;53303;47.476;8.084;2023-03-01T07:17:21;13.30;;;5.03;;
66485;SDS011;53303;47.476;8.084;2023-03-01T07:19:47;10.55;;;4.97;;
66485;SDS011;53303;47.476;8.084;2023-03-01T07:22:12;8.52;;;4.70;;
66485;SDS011;53303;47.476;8.084;2023-03-01T07:24:38;11.25;;;4.60;;
66485;SDS011;53303;47.476;8.084;2023-03-01T07:27:03;9.35;;;4.85;;
66485;SDS011;53303;47.476;8.084;2023-03-01T07:29:28;9.10;;;4.65;;
66485;SDS011;53303;47.476;8.084;2023-03-01T07:31:54;8.52;;;4.70;;
66485;SDS011;53303;47.476;8.084;2023-03-01T07:34:19;9.13;;;4.50;;
66485;SDS011;53303;47.476;8.084;2023-03-01T07:36:45;9.20;;;4.55;;
66485;SDS011;53303;47.476;8.084;2023-03-01T07:39:11;8.90;;;4.75;;
66485;SDS011;53303;47.476;8.084;2023-03-01T07:41:36;7.93;;;4.70;;
66485;SDS011;53303;47.476;8.084;2023-03-01T07:44:02;8.00;;;4.53;;
66485;SDS011;53303;47.476;8.084;2023-03-01T07:46:27;7.72;;;4.72;;
66485;SDS011;53303;47.476;8.084;2023-03-01T07:48:53;9.00;;;4.90;;
66485;SDS011;53303;47.476;8.084;2023-03-01T07:51:18;9.50;;;4.60;;
66485;SDS011;53303;47.476;8.084;2023-03-01T07:53:47;8.63;;;4.57;;
66485;SDS011;53303;47.476;8.084;2023-03-01T07:56:16;10.02;;;5.30;;
66485;SDS011;53303;47.476;8.084;2023-03-01T07:58:43;9.65;;;4.68;;
66485;SDS011;53303;47.476;8.084;2023-03-01T08:01:10;8.98;;;4.97;;
66485;SDS011;53303;47.476;8.084;2023-03-01T08:03:40;9.30;;;4.80;;
66485;SDS011;53303;47.476;8.084;2023-03-01T08:06:07;8.20;;;4.72;;
66485;SDS011;53303;47.476;8.084;2023-03-01T08:08:34;8.82;;;4.63;;
66485;SDS011;53303;47.476;8.084;2023-03-01T08:11:01;7.20;;;4.65;;
66485;SDS011;53303;47.476;8.084;2023-03-01T08:13:27;8.23;;;4.90;;
66485;SDS011;53303;47.476;8.084;2023-03-01T08:15:53;8.98;;;4.80;;
66485;SDS011;53303;47.476;8.084;2023-03-01T08:18:19;8.30;;;4.70;;
66485;SDS011;53303;47.476;8.084;2023-03-01T08:20:45;8.00;;;4.70;;
66485;SDS011;53303;47.476;8.084;2023-03-01T08:23:11;8.55;;;4.65;;
66485;SDS011;53303;47.476;8.084;2023-03-01T08:25:42;9.48;;;4.53;;
66485;SDS011;53303;47.476;8.084;2023-03-01T08:28:07;8.02;;;4.93;;
66485;SDS011;53303;47.476;8.084;2023-03-01T08:30:35;7.72;;;4.43;;
66485;SDS011;53303;47.476;8.084;2023-03-01T08:33:01;7.75;;;4.57;;
66485;SDS011;53303;47.476;8.084;2023-03-01T08:35:26;8.35;;;4.72;;
66485;SDS011;53303;47.476;8.084;2023-03-01T08:37:52;9.07;;;5.00;;
66485;SDS011;53303;47.476;8.084;2023-03-01T08:40:17;10.88;;;5.15;;
66485;SDS011;53303;47.476;8.084;2023-03-01T08:42:42;9.63;;;4.78;;
66485;SDS011;53303;47.476;8.084;2023-03-01T08:45:09;8.57;;;4.68;;
66485;SDS011;53303;47.476;8.084;2023-03-01T08:47:36;8.27;;;4.65;;
66485;SDS011;53303;47.476;8.084;2023-03-01T08:50:02;8.02;;;5.05;;
66485;SDS011;53303;47.476;8.084;2023-03-01T08:52:28;8.00;;;4.53;;
66485;SDS011;53303;47.476;8.084;2023-03-01T08:54:55;9.70;;;4.47;;
66485;SDS011;53303;47.476;8.084;2023-03-01T08:57:20;7.93;;;4.60;;
66485;SDS011;53303;47.476;8.084;2023-03-01T08:59:46;8.48;;;4.38;;
66485;SDS011;53303;47.476;8.084;2023-03-01T09:02:12;8.65;;;5.22;;
66485;SDS011;53303;47.476;8.084;2023-03-01T09:04:39;9.85;;;5.32;;
66485;SDS011;53303;47.476;8.084;2023-03-01T09:07:05;7.97;;;5.00;;
66485;SDS011;53303;47.476;8.084;2023-03-01T09:09:31;7.65;;;4.93;;
66485;SDS011;53303;47.476;8.084;2023-03-01T09:11:56;8.95;;;5.03;;
66485;SDS011;53303;47.476;8.084;2023-03-01T09:14:22;7.75;;;4.97;;
66485;SDS011;53303;47.476;8.084;2023-03-01T09:16:47;8.27;;;5.00;;
66485;SDS011;53303;47.476;8.084;2023-03-01T09:19:13;8.98;;;4.97;;
66485;SDS011;53303;47.476;8.084;2023-03-01T09:21:39;8.50;;;4.75;;
66485;SDS011;53303;47.476;8.084;2023-03-01T09:24:05;8.38;;;4.95;;
66485;SDS011;53303;47.476;8.084;2023-03-01T09:26:39;8.95;;;4.70;;
66485;SDS011;53303;47.476;8.084;2023-03-01T09:29:07;7.95;;;4.85;;
66485;SDS011;53303;47.476;8.084;2023-03-01T09:31:35;8.93;;;4.72;;
66485;SDS011;53303;47.476;8.084;2023-03-01T09:34:02;8.05;;;4.88;;
66485;SDS011;53303;47.476;8.084;2023-03-01T09:36:28;8.57;;;5.20;;
66485;SDS011;53303;47.476;8.084;2023-03-01T09:38:53;8.70;;;5.15;;
66485;SDS011;53303;47.476;8.084;2023-03-01T09:44:10;8.10;;;5.00;;
66485;SDS011;53303;47.476;8.084;2023-03-01T09:46:40;8.55;;;4.88;;
66485;SDS011;53303;47.476;8.084;2023-03-01T09:49:18;8.98;;;5.00;;
66485;SDS011;53303;47.476;8.084;2023-03-01T09:51:53;7.43;;;4.82;;
66485;SDS011;53303;47.476;8.084;2023-03-01T09:54:22;7.80;;;4.65;;
66485;SDS011;53303;47.476;8.084;2023-03-01T10:05:11;7.18;;;4.72;;
66485;SDS011;53303;47.476;8.084;2023-03-01T10:08:02;8.60;;;5.00;;
66485;SDS011;53303;47.476;8.084;2023-03-01T10:10:43;8.25;;;5.10;;
66485;SDS011;53303;47.476;8.084;2023-03-01T10:13:16;8.73;;;4.82;;
66485;SDS011;53303;47.476;8.084;2023-03-01T10:21:14;8.63;;;4.65;;
66485;SDS011;53303;47.476;8.084;2023-03-01T10:23:43;8.43;;;4.78;;
66485;SDS011;53303;47.476;8.084;2023-03-01T10:26:12;8.43;;;5.05;;
66485;SDS011;53303;47.476;8.084;2023-03-01T10:31:51;8.20;;;5.15;;
66485;SDS011;53303;47.476;8.084;2023-03-01T10:34:30;9.18;;;5.03;;
66485;SDS011;53303;47.476;8.084;2023-03-01T10:36:58;8.32;;;4.85;;
66485;SDS011;53303;47.476;8.084;2023-03-01T10:39:33;9.30;;;5.20;;
66485;SDS011;53303;47.476;8.084;2023-03-01T10:42:00;8.82;;;5.60;;
66485;SDS011;53303;47.476;8.084;2023-03-01T10:45:02;8.50;;;5.07;;
66485;SDS011;53303;47.476;8.084;2023-03-01T10:47:20;8.93;;;5.13;;
66485;SDS011;53303;47.476;8.084;2023-03-01T10:50:00;8.25;;;5.32;;
66485;SDS011;53303;47.476;8.084;2023-03-01T10:54:55;9.10;;;5.47;;
66485;SDS011;53303;47.476;8.084;2023-03-01T11:00:25;8.80;;;5.28;;
66485;SDS011;53303;47.476;8.084;2023-03-01T11:05:23;8.60;;;5.32;;
66485;SDS011;53303;47.476;8.084;2023-03-01T11:08:00;8.77;;;5.15;;
66485;SDS011;53303;47.476;8.084;2023-03-01T11:10:29;9.45;;;5.22;;
66485;SDS011;53303;47.476;8.084;2023-03-01T11:15:43;8.10;;;4.97;;
66485;SDS011;53303;47.476;8.084;2023-03-01T11:18:26;9.90;;;5.57;;
66485;SDS011;53303;47.476;8.084;2023-03-01T11:20:55;9.70;;;5.25;;
66485;SDS011;53303;47.476;8.084;2023-03-01T11:23:23;9.07;;;5.50;;
66485;SDS011;53303;47.476;8.084;2023-03-01T11:25:51;9.50;;;5.78;;
66485;SDS011;53303;47.476;8.084;2023-03-01T11:28:20;9.82;;;5.43;;
66485;SDS011;53303;47.476;8.084;2023-03-01T11:33:41;8.88;;;4.85;;
66485;SDS011;53303;47.476;8.084;2023-03-01T11:38:48;9.00;;;5.47;;
66485;SDS011;53303;47.476;8.084;2023-03-01T11:41:16;9.77;;;5.38;;
66485;SDS011;53303;47.476;8.084;2023-03-01T11:43:59;8.73;;;5.25;;
66485;SDS011;53303;47.476;8.084;2023-03-01T12:00:23;9.50;;;5.35;;
66485;SDS011;53303;47.476;8.084;2023-03-01T12:34:17;7.70;;;4.93;;
66485;SDS011;53303;47.476;8.084;2023-03-01T12:36:52;8.77;;;5.18;;
66485;SDS011;53303;47.476;8.084;2023-03-01T12:42:12;8.50;;;5.05;;
66485;SDS011;53303;47.476;8.084;2023-03-01T12:50:19;8.40;;;4.85;;
66485;SDS011;53303;47.476;8.084;2023-03-01T12:55:34;9.00;;;5.22;;
66485;SDS011;53303;47.476;8.084;2023-03-01T13:06:58;9.70;;;5.05;;
66485;SDS011;53303;47.476;8.084;2023-03-01T13:17:59;10.00;;;5.53;;
66485;SDS011;53303;47.476;8.084;2023-03-01T13:21:00;9.10;;;5.82;;
66485;SDS011;53303;47.476;8.084;2023-03-01T13:31:06;10.18;;;5.18;;
66485;SDS011;53303;47.476;8.084;2023-03-01T13:33:39;8.85;;;5.30;;
66485;SDS011;53303;47.476;8.084;2023-03-01T13:36:07;8.77;;;5.45;;
66485;SDS011;53303;47.476;8.084;2023-03-01T13:44:22;9.00;;;5.07;;
66485;SDS011;53303;47.476;8.084;2023-03-01T13:49:33;10.75;;;5.60;;
66485;SDS011;53303;47.476;8.084;2023-03-01T13:52:13;8.25;;;5.32;;
66485;SDS011;53303;47.476;8.084;2023-03-01T13:54:46;9.77;;;5.38;;
66485;SDS011;53303;47.476;8.084;2023-03-01T13:57:12;8.80;;;5.80;;
66485;SDS011;53303;47.476;8.084;2023-03-01T13:59:49;10.20;;;5.43;;
66485;SDS011;53303;47.476;8.084;2023-03-01T14:02:15;11.70;;;5.57;;
66485;SDS011;53303;47.476;8.084;2023-03-01T14:04:47;8.75;;;5.05;;
66485;SDS011;53303;47.476;8.084;2023-03-01T14:07:22;8.70;;;5.63;;
66485;SDS011;53303;47.476;8.084;2023-03-01T14:09:52;8.35;;;5.18;;
66485;SDS011;53303;47.476;8.084;2023-03-01T14:15:30;9.63;;;5.38;;
66485;SDS011;53303;47.476;8.084;2023-03-01T14:20:38;9.85;;;6.05;;
66485;SDS011;53303;47.476;8.084;2023-03-01T14:23:11;8.65;;;5.32;;
66485;SDS011;53303;47.476;8.084;2023-03-01T14:25:45;9.75;;;5.60;;
66485;SDS011;53303;47.476;8.084;2023-03-01T14:30:49;8.80;;;5.72;;
66485;SDS011;53303;47.476;8.084;2023-03-01T14:33:24;8.98;;;5.10;;
66485;SDS011;53303;47.476;8.084;2023-03-01T14:35:52;10.43;;;5.75;;
66485;SDS011;53303;47.476;8.084;2023-03-01T14:41:28;10.68;;;5.28;;
66485;SDS011;53303;47.476;8.084;2023-03-01T14:46:29;8.75;;;5.47;;
66485;SDS011;53303;47.476;8.084;2023-03-01T14:49:01;9.32;;;5.25;;
66485;SDS011;53303;47.476;8.084;2023-03-01T14:51:41;9.60;;;5.70;;
66485;SDS011;53303;47.476;8.084;2023-03-01T14:54:24;8.27;;;5.13;;
66485;SDS011;53303;47.476;8.084;2023-03-01T14:56:52;10.98;;;5.22;;
66485;SDS011;53303;47.476;8.084;2023-03-01T14:59:23;11.93;;;5.30;;
66485;SDS011;53303;47.476;8.084;2023-03-01T15:01:50;8.90;;;5.20;;
66485;SDS011;53303;47.476;8.084;2023-03-01T15:04:17;9.82;;;5.53;;
66485;SDS011;53303;47.476;8.084;2023-03-01T15:06:43;13.93;;;5.35;;
66485;SDS011;53303;47.476;8.084;2023-03-01T15:09:15;8.93;;;5.30;;
66485;SDS011;53303;47.476;8.084;2023-03-01T15:11:42;9.38;;;5.47;;
66485;SDS011;53303;47.476;8.084;2023-03-01T15:16:53;8.70;;;5.50;;
66485;SDS011;53303;47.476;8.084;2023-03-01T15:19:19;10.65;;;5.40;;
66485;SDS011;53303;47.476;8.084;2023-03-01T15:21:46;9.52;;;5.45;;
66485;SDS011;53303;47.476;8.084;2023-03-01T15:24:20;9.73;;;5.22;;
66485;SDS011;53303;47.476;8.084;2023-03-01T15:26:51;8.70;;;5.35;;
66485;SDS011;53303;47.476;8.084;2023-03-01T15:29:21;9.65;;;5.53;;
66485;SDS011;53303;47.476;8.084;2023-03-01T15:34:32;8.77;;;5.53;;
66485;SDS011;53303;47.476;8.084;2023-03-01T15:37:01;8.73;;;5.28;;
66485;SDS011;53303;47.476;8.084;2023-03-01T15:45:10;8.65;;;5.15;;
66485;SDS011;53303;47.476;8.084;2023-03-01T15:48:19;8.90;;;5.10;;
66485;SDS011;53303;47.476;8.084;2023-03-01T15:50:57;9.50;;;5.30;;
66485;SDS011;53303;47.476;8.084;2023-03-01T15:53:24;12.00;;;5.82;;
66485;SDS011;53303;47.476;8.084;2023-03-01T15:55:52;9.40;;;5.55;;
66485;SDS011;53303;47.476;8.084;2023-03-01T15:58:18;9.40;;;5.55;;
66485;SDS011;53303;47.476;8.084;2023-03-01T16:00:47;11.27;;;5.80;;
66485;SDS011;53303;47.476;8.084;2023-03-01T16:03:13;9.52;;;5.70;;
66485;SDS011;53303;47.476;8.084;2023-03-01T16:05:46;9.93;;;5.60;;
66485;SDS011;53303;47.476;8.084;2023-03-01T16:08:15;10.07;;;5.45;;
66485;SDS011;53303;47.476;8.084;2023-03-01T16:10:41;10.20;;;5.60;;
66485;SDS011;53303;47.476;8.084;2023-03-01T16:13:10;11.27;;;5.63;;
66485;SDS011;53303;47.476;8.084;2023-03-01T16:15:36;9.77;;;5.30;;
66485;SDS011;53303;47.476;8.084;2023-03-01T16:18:03;8.82;;;4.85;;
66485;SDS011;53303;47.476;8.084;2023-03-01T16:20:32;8.88;;;5.53;;
66485;SDS011;53303;47.476;8.084;2023-03-01T16:22:58;10.00;;;5.85;;
66485;SDS011;53303;47.476;8.084;2023-03-01T16:25:26;9.48;;;5.43;;
66485;SDS011;53303;47.476;8.084;2023-03-01T16:27:55;10.60;;;5.35;;
66485;SDS011;53303;47.476;8.084;2023-03-01T16:30:22;9.25;;;5.55;;
66485;SDS011;53303;47.476;8.084;2023-03-01T16:32:48;11.98;;;6.70;;
66485;SDS011;53303;47.476;8.084;2023-03-01T16:35:16;10.60;;;6.05;;
66485;SDS011;53303;47.476;8.084;2023-03-01T16:37:43;11.48;;;6.53;;
66485;SDS011;53303;47.476;8.084;2023-03-01T16:40:18;10.85;;;6.85;;
66485;SDS011;53303;47.476;8.084;2023-03-01T16:42:46;11.77;;;6.80;;
66485;SDS011;53303;47.476;8.084;2023-03-01T16:45:13;10.50;;;6.55;;
66485;SDS011;53303;47.476;8.084;2023-03-01T16:47:38;10.57;;;6.70;;
66485;SDS011;53303;47.476;8.084;2023-03-01T16:50:03;10.95;;;7.15;;
66485;SDS011;53303;47.476;8.084;2023-03-01T16:52:33;11.77;;;7.32;;
66485;SDS011;53303;47.476;8.084;2023-03-01T16:54:58;12.18;;;7.05;;
66485;SDS011;53303;47.476;8.084;2023-03-01T16:57:26;11.68;;;7.28;;
66485;SDS011;53303;47.476;8.084;2023-03-01T16:59:57;11.82;;;7.03;;
66485;SDS011;53303;47.476;8.084;2023-03-01T17:02:22;12.20;;;6.90;;
66485;SDS011;53303;47.476;8.084;2023-03-01T17:04:51;13.75;;;7.82;;
66485;SDS011;53303;47.476;8.084;2023-03-01T17:07:17;10.95;;;6.95;;
66485;SDS011;53303;47.476;8.084;2023-03-01T17:09:43;12.88;;;6.88;;
66485;SDS011;53303;47.476;8.084;2023-03-01T17:12:09;11.07;;;6.85;;
66485;SDS011;53303;47.476;8.084;2023-03-01T17:14:39;13.60;;;7.07;;
66485;SDS011;53303;47.476;8.084;2023-03-01T17:17:06;13.68;;;7.07;;
66485;SDS011;53303;47.476;8.084;2023-03-01T17:19:32;11.57;;;6.82;;
66485;SDS011;53303;47.476;8.084;2023-03-01T17:22:00;11.02;;;6.60;;
66485;SDS011;53303;47.476;8.084;2023-03-01T17:24:26;11.50;;;7.30;;
66485;SDS011;53303;47.476;8.084;2023-03-01T17:26:52;10.68;;;6.65;;
66485;SDS011;53303;47.476;8.084;2023-03-01T17:29:17;11.85;;;6.75;;
66485;SDS011;53303;47.476;8.084;2023-03-01T17:31:43;13.07;;;7.00;;
66485;SDS011;53303;47.476;8.084;2023-03-01T17:34:11;12.60;;;7.15;;
66485;SDS011;53303;47.476;8.084;2023-03-01T17:36:36;11.65;;;7.28;;
66485;SDS011;53303;47.476;8.084;2023-03-01T17:39:08;12.70;;;7.07;;
66485;SDS011;53303;47.476;8.084;2023-03-01T17:41:34;10.32;;;6.78;;